Terminal Aerodrome Forecast
Issued by NWS St Louis, MO

Home | Current Version | Previous Version | Text Only | Print | Product List | Glossary On
Versions: 1 2 3 4 5 6 7 8 9 10 11 12 13 14 15 16
000
FTUS43 KLSX 272300
TAFCOU
TAF
KCOU 272340Z 2800/2824 09004KT P6SM BKN080
     FM280500 14008KT P6SM SCT250
     FM281200 16009KT P6SM SCT250 WS015/21040KT
     FM281500 19012G18KT P6SM SCT250
     FM282300 18010KT P6SM BKN250=

USA.gov is the U.S. government's official web portal to all federal, state and local government web resources and services.